createdAt,value
2022-08-03T00:01:55.199Z,2.77
2022-08-03T00:05:14.319Z,2.30
2022-08-03T00:08:40.266Z,2.40
2022-08-03T00:11:50.441Z,2.37
2022-08-03T00:14:55.589Z,2.50
2022-08-03T00:17:52.048Z,2.60
2022-08-03T00:24:01.372Z,2.57
2022-08-03T00:26:32.844Z,2.63
2022-08-03T00:29:03.273Z,2.37
2022-08-03T00:31:50.063Z,2.57
2022-08-03T00:34:36.597Z,2.70
2022-08-03T00:37:13.725Z,2.50
2022-08-03T00:39:48.142Z,2.53
2022-08-03T00:42:17.118Z,2.43
2022-08-03T00:44:52.221Z,2.57
2022-08-03T00:47:20.917Z,2.60
2022-08-03T00:49:49.537Z,2.53
2022-08-03T00:52:20.803Z,3.07
2022-08-03T00:54:51.075Z,2.87
2022-08-03T00:57:19.749Z,2.57
2022-08-03T00:59:48.364Z,2.60
2022-08-03T01:02:17.063Z,2.50
2022-08-03T01:04:45.839Z,2.33
2022-08-03T01:07:23.084Z,2.90
2022-08-03T01:10:04.063Z,2.43
2022-08-03T01:12:39.895Z,2.63
2022-08-03T01:15:16.751Z,2.60
2022-08-03T01:18:05.145Z,2.60
2022-08-03T01:20:41.703Z,2.40
2022-08-03T01:23:45.251Z,2.60
2022-08-03T01:26:48.972Z,2.80
2022-08-03T01:29:54.521Z,2.80
2022-08-03T01:32:53.616Z,2.67
2022-08-03T01:35:21.291Z,2.70
2022-08-03T01:37:57.764Z,2.60
2022-08-03T01:40:38.403Z,2.67
2022-08-03T01:44:26.926Z,2.67
2022-08-03T01:46:15.296Z,2.80
2022-08-03T01:48:49.257Z,2.43
2022-08-03T01:52:03.231Z,2.90
2022-08-03T01:54:29.848Z,3.10
2022-08-03T01:57:00.551Z,2.60
2022-08-03T01:59:34.077Z,2.57
2022-08-03T02:02:15.355Z,2.83
2022-08-03T02:04:57.348Z,2.93
2022-08-03T02:07:27.445Z,3.03
2022-08-03T02:10:03.180Z,3.13
2022-08-03T02:12:34.203Z,2.83
2022-08-03T02:15:04.651Z,2.80
2022-08-03T02:17:39.760Z,2.90
2022-08-03T02:20:12.781Z,3.00
2022-08-03T02:22:50.203Z,2.90
2022-08-03T02:25:27.286Z,2.17
2022-08-03T02:27:59.329Z,2.67
2022-08-03T02:30:37.109Z,2.80
2022-08-03T02:33:12.167Z,3.00
2022-08-03T02:35:41.820Z,2.77
2022-08-03T02:38:12.588Z,2.73
2022-08-03T02:40:43.261Z,2.53
2022-08-03T02:43:17.638Z,2.50
2022-08-03T02:45:51.622Z,2.80
2022-08-03T02:48:24.531Z,2.70
2022-08-03T02:53:47.480Z,2.93
2022-08-03T02:56:39.154Z,2.90
2022-08-03T02:59:36.279Z,3.03
2022-08-03T03:02:29.750Z,3.07
2022-08-03T03:05:55.414Z,3.20
2022-08-03T03:08:28.432Z,2.73
2022-08-03T03:11:11.822Z,3.23
2022-08-03T03:14:17.895Z,3.03
2022-08-03T03:17:32.208Z,3.50
2022-08-03T03:20:29.343Z,3.17
2022-08-03T03:23:15.020Z,3.37
2022-08-03T03:25:59.440Z,3.40
2022-08-03T03:28:43.929Z,3.00
2022-08-03T03:31:41.986Z,3.00
2022-08-03T03:34:31.464Z,3.60
2022-08-03T03:37:26.895Z,3.30
2022-08-03T03:40:25.174Z,3.10
2022-08-03T03:43:10.082Z,3.00
2022-08-03T03:46:27.519Z,3.03
2022-08-03T03:49:09.433Z,3.40
2022-08-03T03:52:10.903Z,2.90
2022-08-03T03:54:45.252Z,3.10
2022-08-03T03:57:20.032Z,6.37
2022-08-03T03:59:52.915Z,4.57
2022-08-03T04:02:27.799Z,3.90
2022-08-03T04:05:13.984Z,3.10
2022-08-03T04:30:49.737Z,2.97
2022-08-03T04:34:35.694Z,3.50
2022-08-03T04:49:44.868Z,3.73
2022-08-03T04:52:13.710Z,3.73
2022-08-03T04:54:43.091Z,3.43
2022-08-03T04:57:23.602Z,3.17
2022-08-03T05:00:02.509Z,3.77
2022-08-03T05:02:32.475Z,3.13
2022-08-03T05:05:02.506Z,2.70
2022-08-03T05:07:36.095Z,2.70
2022-08-03T05:10:14.665Z,2.90
2022-08-03T06:16:12.789Z,2.27
2022-08-03T06:23:53.450Z,2.50
2022-08-03T06:35:20.716Z,2.50
2022-08-03T06:39:13.539Z,2.60
2022-08-03T06:45:32.050Z,2.60
2022-08-03T06:52:10.643Z,2.50
2022-08-03T06:58:33.490Z,2.37
2022-08-03T07:05:17.805Z,2.40
2022-08-03T07:18:30.590Z,2.83
2022-08-03T07:38:09.057Z,2.10
2022-08-03T07:49:22.328Z,2.70
2022-08-03T07:53:31.146Z,2.77
2022-08-03T07:56:02.683Z,2.93
2022-08-03T08:02:44.439Z,2.47
2022-08-03T08:09:24.161Z,2.70
2022-08-03T08:16:02.607Z,2.63
2022-08-03T08:18:57.587Z,2.60
2022-08-03T08:30:10.819Z,2.50
2022-08-03T08:32:49.708Z,2.35
2022-08-03T08:36:16.197Z,2.97
2022-08-03T08:39:18.302Z,2.20
2022-08-03T08:52:25.234Z,2.65
2022-08-03T08:55:58.476Z,2.45
2022-08-03T09:03:48.016Z,2.78
2022-08-03T09:07:56.573Z,2.17
2022-08-03T09:38:12.796Z,1.85
2022-08-03T09:42:56.566Z,2.10
2022-08-03T09:47:10.769Z,2.30
2022-08-03T09:51:33.090Z,1.83
2022-08-03T09:54:12.659Z,1.65
2022-08-03T10:04:02.996Z,1.65
2022-08-03T10:13:34.469Z,1.50
2022-08-03T10:21:48.285Z,1.58
2022-08-03T11:03:58.826Z,1.50
2022-08-03T11:07:59.703Z,1.50
2022-08-03T11:11:55.814Z,1.70
2022-08-03T11:16:23.674Z,1.67
2022-08-03T11:24:15.125Z,1.70
2022-08-03T11:27:46.466Z,1.70
2022-08-03T11:31:03.104Z,1.80
2022-08-03T11:34:44.491Z,1.63
2022-08-03T11:39:04.695Z,1.50
2022-08-03T20:51:49.104Z,1.85
2022-08-03T21:37:39.816Z,1.90
2022-08-03T21:40:14.700Z,1.80
2022-08-03T21:42:57.057Z,1.97
2022-08-03T21:45:42.768Z,2.00
2022-08-03T21:48:24.778Z,2.00
2022-08-03T21:50:56.338Z,2.00
2022-08-03T21:54:02.713Z,1.70
2022-08-03T21:56:51.084Z,2.07
2022-08-03T21:59:45.740Z,2.10
2022-08-03T22:02:42.803Z,2.20
2022-08-03T22:05:16.266Z,1.70
2022-08-03T22:08:04.225Z,2.27
2022-08-03T22:10:49.195Z,1.83
2022-08-03T22:13:43.528Z,1.90
2022-08-03T22:16:39.095Z,2.00
2022-08-03T22:19:25.646Z,1.90
2022-08-03T22:22:32.323Z,2.00
2022-08-03T22:25:23.047Z,1.83
2022-08-03T22:28:26.857Z,2.03
2022-08-03T22:31:56.951Z,1.97
2022-08-03T22:34:27.385Z,2.27
2022-08-03T22:37:15.447Z,1.80
2022-08-03T22:40:00.044Z,2.10
2022-08-03T22:43:04.596Z,1.97
2022-08-03T22:46:06.340Z,2.17
2022-08-03T22:48:58.422Z,1.90
2022-08-03T22:51:51.045Z,2.10
2022-08-03T22:54:47.782Z,2.03
2022-08-03T22:57:25.651Z,1.90
2022-08-03T23:00:09.082Z,2.00
2022-08-03T23:02:47.241Z,2.10
2022-08-03T23:06:01.980Z,2.30
2022-08-03T23:08:28.814Z,2.20
2022-08-03T23:11:08.746Z,2.20
2022-08-03T23:13:45.352Z,2.20
2022-08-03T23:16:29.247Z,2.27
2022-08-03T23:19:17.054Z,2.00
2022-08-03T23:22:02.513Z,2.20
2022-08-03T23:24:44.313Z,2.20
2022-08-03T23:27:31.966Z,1.90
2022-08-03T23:30:14.038Z,2.10
2022-08-03T23:33:02.209Z,2.03
2022-08-03T23:36:17.300Z,1.87
2022-08-03T23:39:14.609Z,2.27
2022-08-03T23:42:05.572Z,2.03
2022-08-03T23:44:54.072Z,1.90
2022-08-03T23:47:46.354Z,2.10
2022-08-03T23:50:32.429Z,2.10
2022-08-03T23:53:16.820Z,2.27
2022-08-03T23:56:23.432Z,2.23
2022-08-03T23:59:22.605Z,2.30
